sensor_id;sensor_type;location;lat;lon;timestamp;temperature;humidity
36444;DHT22;24692;45.642;13.806;2022-12-05T00:03:56;10.40;99.90
36444;DHT22;24692;45.642;13.806;2022-12-05T00:06:23;10.50;99.90
36444;DHT22;24692;45.642;13.806;2022-12-05T00:08:49;10.50;99.90
36444;DHT22;24692;45.642;13.806;2022-12-05T00:11:20;10.40;99.90
36444;DHT22;24692;45.642;13.806;2022-12-05T00:13:46;10.40;99.90
36444;DHT22;24692;45.642;13.806;2022-12-05T00:16:15;10.40;99.90
36444;DHT22;24692;45.642;13.806;2022-12-05T00:18:41;10.30;99.90
36444;DHT22;24692;45.642;13.806;2022-12-05T00:21:10;10.30;99.90
36444;DHT22;24692;45.642;13.806;2022-12-05T00:23:36;10.30;99.90
36444;DHT22;24692;45.642;13.806;2022-12-05T00:26:03;10.20;99.90
36444;DHT22;24692;45.642;13.806;2022-12-05T00:28:33;10.10;99.90
36444;DHT22;24692;45.642;13.806;2022-12-05T00:31:05;10.20;99.90
36444;DHT22;24692;45.642;13.806;2022-12-05T00:33:31;10.20;99.90
36444;DHT22;24692;45.642;13.806;2022-12-05T00:36:05;10.20;99.90
36444;DHT22;24692;45.642;13.806;2022-12-05T00:38:31;10.10;99.90
36444;DHT22;24692;45.642;13.806;2022-12-05T00:41:03;10.10;99.90
36444;DHT22;24692;45.642;13.806;2022-12-05T00:43:29;10.10;99.90
36444;DHT22;24692;45.642;13.806;2022-12-05T00:45:54;10.20;99.90
36444;DHT22;24692;45.642;13.806;2022-12-05T00:48:20;10.10;99.90
36444;DHT22;24692;45.642;13.806;2022-12-05T00:50:46;10.10;99.90
36444;DHT22;24692;45.642;13.806;2022-12-05T00:53:11;10.10;99.90
36444;DHT22;24692;45.642;13.806;2022-12-05T00:55:37;10.10;99.90
36444;DHT22;24692;45.642;13.806;2022-12-05T00:58:02;10.10;99.90
36444;DHT22;24692;45.642;13.806;2022-12-05T01:00:28;10.10;99.90
36444;DHT22;24692;45.642;13.806;2022-12-05T01:02:54;10.10;99.90
36444;DHT22;24692;45.642;13.806;2022-12-05T01:05:20;10.10;99.90
36444;DHT22;24692;45.642;13.806;2022-12-05T01:07:46;10.00;99.90
36444;DHT22;24692;45.642;13.806;2022-12-05T01:10:11;10.00;99.90
36444;DHT22;24692;45.642;13.806;2022-12-05T01:12:37;9.90;99.90
36444;DHT22;24692;45.642;13.806;2022-12-05T01:15:03;10.00;99.90
36444;DHT22;24692;45.642;13.806;2022-12-05T01:17:29;10.00;99.90
36444;DHT22;24692;45.642;13.806;2022-12-05T01:19:54;9.80;99.90
36444;DHT22;24692;45.642;13.806;2022-12-05T01:22:20;9.80;99.90
36444;DHT22;24692;45.642;13.806;2022-12-05T01:24:46;9.80;99.90
36444;DHT22;24692;45.642;13.806;2022-12-05T01:27:11;9.80;99.90
36444;DHT22;24692;45.642;13.806;2022-12-05T01:29:37;9.70;99.90
36444;DHT22;24692;45.642;13.806;2022-12-05T01:32:03;9.80;99.90
36444;DHT22;24692;45.642;13.806;2022-12-05T01:34:29;9.80;99.90
36444;DHT22;24692;45.642;13.806;2022-12-05T01:36:54;9.70;99.90
36444;DHT22;24692;45.642;13.806;2022-12-05T01:39:20;9.80;99.90
36444;DHT22;24692;45.642;13.806;2022-12-05T01:41:48;9.90;99.90
36444;DHT22;24692;45.642;13.806;2022-12-05T01:46:45;10.10;99.90
36444;DHT22;24692;45.642;13.806;2022-12-05T01:51:56;10.10;99.90
36444;DHT22;24692;45.642;13.806;2022-12-05T01:54:22;10.10;99.90
36444;DHT22;24692;45.642;13.806;2022-12-05T01:56:57;10.10;99.90
36444;DHT22;24692;45.642;13.806;2022-12-05T01:59:24;10.10;99.90
36444;DHT22;24692;45.642;13.806;2022-12-05T02:01:51;10.10;99.90
36444;DHT22;24692;45.642;13.806;2022-12-05T02:04:17;10.10;99.90
36444;DHT22;24692;45.642;13.806;2022-12-05T02:06:42;10.00;99.90
36444;DHT22;24692;45.642;13.806;2022-12-05T02:09:08;10.00;99.90
36444;DHT22;24692;45.642;13.806;2022-12-05T02:11:36;10.00;99.90
36444;DHT22;24692;45.642;13.806;2022-12-05T02:14:42;9.90;99.90
36444;DHT22;24692;45.642;13.806;2022-12-05T02:30:55;10.60;99.90
36444;DHT22;24692;45.642;13.806;2022-12-05T02:33:46;10.70;99.90
36444;DHT22;24692;45.642;13.806;2022-12-05T02:36:39;10.90;99.90
36444;DHT22;24692;45.642;13.806;2022-12-05T02:39:44;11.00;99.90
36444;DHT22;24692;45.642;13.806;2022-12-05T02:42:18;11.10;99.90
36444;DHT22;24692;45.642;13.806;2022-12-05T02:44:52;11.10;99.90
36444;DHT22;24692;45.642;13.806;2022-12-05T02:47:22;11.10;99.90
36444;DHT22;24692;45.642;13.806;2022-12-05T02:49:50;11.20;99.90
36444;DHT22;24692;45.642;13.806;2022-12-05T02:52:18;11.20;99.90
36444;DHT22;24692;45.642;13.806;2022-12-05T02:54:47;11.20;99.90
36444;DHT22;24692;45.642;13.806;2022-12-05T02:57:14;11.30;99.90
36444;DHT22;24692;45.642;13.806;2022-12-05T02:59:41;11.30;99.90
36444;DHT22;24692;45.642;13.806;2022-12-05T03:02:30;11.30;99.90
36444;DHT22;24692;45.642;13.806;2022-12-05T03:07:59;11.40;99.90
36444;DHT22;24692;45.642;13.806;2022-12-05T03:10:30;11.40;99.90
36444;DHT22;24692;45.642;13.806;2022-12-05T03:13:01;11.50;99.90
36444;DHT22;24692;45.642;13.806;2022-12-05T03:15:32;11.50;99.90
36444;DHT22;24692;45.642;13.806;2022-12-05T03:18:08;11.60;99.90
36444;DHT22;24692;45.642;13.806;2022-12-05T03:20:59;11.60;99.90
36444;DHT22;24692;45.642;13.806;2022-12-05T03:23:42;11.60;99.90
36444;DHT22;24692;45.642;13.806;2022-12-05T03:31:53;11.90;99.90
36444;DHT22;24692;45.642;13.806;2022-12-05T03:34:34;11.90;99.90
36444;DHT22;24692;45.642;13.806;2022-12-05T03:37:05;12.00;99.90
36444;DHT22;24692;45.642;13.806;2022-12-05T03:39:34;12.00;99.90
36444;DHT22;24692;45.642;13.806;2022-12-05T03:42:12;12.00;99.90
36444;DHT22;24692;45.642;13.806;2022-12-05T03:47:38;12.10;99.90
36444;DHT22;24692;45.642;13.806;2022-12-05T03:50:23;12.10;99.90
36444;DHT22;24692;45.642;13.806;2022-12-05T03:53:03;12.10;99.90
36444;DHT22;24692;45.642;13.806;2022-12-05T03:55:32;12.10;99.90
36444;DHT22;24692;45.642;13.806;2022-12-05T03:58:18;12.20;99.90
36444;DHT22;24692;45.642;13.806;2022-12-05T04:00:48;12.20;99.90
36444;DHT22;24692;45.642;13.806;2022-12-05T04:03:48;12.20;99.90
36444;DHT22;24692;45.642;13.806;2022-12-05T04:06:35;12.30;99.90
36444;DHT22;24692;45.642;13.806;2022-12-05T04:09:11;12.30;99.90
36444;DHT22;24692;45.642;13.806;2022-12-05T04:11:44;12.30;99.90
36444;DHT22;24692;45.642;13.806;2022-12-05T04:14:15;12.30;99.90
36444;DHT22;24692;45.642;13.806;2022-12-05T04:16:55;12.30;99.90
36444;DHT22;24692;45.642;13.806;2022-12-05T04:19:38;12.40;99.90
36444;DHT22;24692;45.642;13.806;2022-12-05T04:22:24;12.50;99.90
36444;DHT22;24692;45.642;13.806;2022-12-05T04:24:51;12.50;99.90
36444;DHT22;24692;45.642;13.806;2022-12-05T04:30:18;12.50;99.90
36444;DHT22;24692;45.642;13.806;2022-12-05T04:33:39;12.60;99.90
36444;DHT22;24692;45.642;13.806;2022-12-05T04:35:49;12.50;99.90
36444;DHT22;24692;45.642;13.806;2022-12-05T04:38:39;12.50;99.90
36444;DHT22;24692;45.642;13.806;2022-12-05T04:41:13;12.70;99.90
36444;DHT22;24692;45.642;13.806;2022-12-05T04:43:42;12.80;99.90
36444;DHT22;24692;45.642;13.806;2022-12-05T04:46:11;12.90;99.90
36444;DHT22;24692;45.642;13.806;2022-12-05T04:48:39;12.90;99.90
36444;DHT22;24692;45.642;13.806;2022-12-05T04:51:08;13.00;99.90
36444;DHT22;24692;45.642;13.806;2022-12-05T04:53:38;13.00;99.90
36444;DHT22;24692;45.642;13.806;2022-12-05T04:56:06;12.90;99.90
36444;DHT22;24692;45.642;13.806;2022-12-05T04:58:32;12.90;99.90
36444;DHT22;24692;45.642;13.806;2022-12-05T05:01:23;12.80;99.90
36444;DHT22;24692;45.642;13.806;2022-12-05T05:03:54;12.80;99.90
36444;DHT22;24692;45.642;13.806;2022-12-05T05:06:22;12.80;99.90
36444;DHT22;24692;45.642;13.806;2022-12-05T05:08:52;12.70;99.90
36444;DHT22;24692;45.642;13.806;2022-12-05T05:11:24;12.60;99.90
36444;DHT22;24692;45.642;13.806;2022-12-05T05:13:52;12.50;99.90
36444;DHT22;24692;45.642;13.806;2022-12-05T05:16:29;12.50;99.90
36444;DHT22;24692;45.642;13.806;2022-12-05T05:18:55;12.40;99.90
36444;DHT22;24692;45.642;13.806;2022-12-05T05:21:38;12.20;99.90
36444;DHT22;24692;45.642;13.806;2022-12-05T05:24:06;11.80;99.90
36444;DHT22;24692;45.642;13.806;2022-12-05T05:26:37;11.80;99.90
36444;DHT22;24692;45.642;13.806;2022-12-05T05:29:03;11.80;99.90
36444;DHT22;24692;45.642;13.806;2022-12-05T05:31:29;11.80;99.90
36444;DHT22;24692;45.642;13.806;2022-12-05T05:33:56;11.90;99.90
36444;DHT22;24692;45.642;13.806;2022-12-05T05:36:23;11.80;99.90
36444;DHT22;24692;45.642;13.806;2022-12-05T05:38:52;11.80;99.90
36444;DHT22;24692;45.642;13.806;2022-12-05T05:41:20;11.70;99.90
36444;DHT22;24692;45.642;13.806;2022-12-05T05:43:46;11.60;99.90
36444;DHT22;24692;45.642;13.806;2022-12-05T05:46:13;11.50;99.90
36444;DHT22;24692;45.642;13.806;2022-12-05T05:48:39;11.50;99.90
36444;DHT22;24692;45.642;13.806;2022-12-05T05:51:07;11.40;99.90
36444;DHT22;24692;45.642;13.806;2022-12-05T05:53:33;11.40;99.90
36444;DHT22;24692;45.642;13.806;2022-12-05T05:56:04;11.40;99.90
36444;DHT22;24692;45.642;13.806;2022-12-05T05:58:30;11.40;99.90
36444;DHT22;24692;45.642;13.806;2022-12-05T06:01:07;11.40;99.90
36444;DHT22;24692;45.642;13.806;2022-12-05T06:03:34;11.50;99.90
36444;DHT22;24692;45.642;13.806;2022-12-05T06:06:03;11.50;99.90
36444;DHT22;24692;45.642;13.806;2022-12-05T06:08:30;11.50;99.90
36444;DHT22;24692;45.642;13.806;2022-12-05T06:10:56;11.50;99.90
36444;DHT22;24692;45.642;13.806;2022-12-05T06:13:22;11.40;99.90
36444;DHT22;24692;45.642;13.806;2022-12-05T06:15:48;11.60;99.90
36444;DHT22;24692;45.642;13.806;2022-12-05T06:18:13;11.60;99.90
36444;DHT22;24692;45.642;13.806;2022-12-05T06:20:39;11.70;99.90
36444;DHT22;24692;45.642;13.806;2022-12-05T06:23:05;11.90;99.90
36444;DHT22;24692;45.642;13.806;2022-12-05T06:25:30;11.90;99.90
36444;DHT22;24692;45.642;13.806;2022-12-05T06:27:56;11.90;99.90
36444;DHT22;24692;45.642;13.806;2022-12-05T06:30:22;11.90;99.90
36444;DHT22;24692;45.642;13.806;2022-12-05T06:32:47;11.90;99.90
36444;DHT22;24692;45.642;13.806;2022-12-05T06:35:13;12.00;99.90
36444;DHT22;24692;45.642;13.806;2022-12-05T06:37:42;11.90;99.90
36444;DHT22;24692;45.642;13.806;2022-12-05T06:40:09;11.90;99.90
36444;DHT22;24692;45.642;13.806;2022-12-05T06:42:35;12.00;99.90
36444;DHT22;24692;45.642;13.806;2022-12-05T06:45:01;11.90;99.90
36444;DHT22;24692;45.642;13.806;2022-12-05T06:47:27;12.00;99.90
36444;DHT22;24692;45.642;13.806;2022-12-05T06:49:52;12.00;99.90
36444;DHT22;24692;45.642;13.806;2022-12-05T06:52:18;12.10;99.90
36444;DHT22;24692;45.642;13.806;2022-12-05T06:54:44;12.20;99.90
36444;DHT22;24692;45.642;13.806;2022-12-05T06:57:11;12.30;99.90
36444;DHT22;24692;45.642;13.806;2022-12-05T06:59:37;12.20;99.90
36444;DHT22;24692;45.642;13.806;2022-12-05T07:02:02;12.30;99.90
36444;DHT22;24692;45.642;13.806;2022-12-05T07:04:31;12.40;99.90
36444;DHT22;24692;45.642;13.806;2022-12-05T07:06:57;12.50;99.90
36444;DHT22;24692;45.642;13.806;2022-12-05T07:09:24;12.50;99.90
36444;DHT22;24692;45.642;13.806;2022-12-05T07:12:11;12.60;99.90
36444;DHT22;24692;45.642;13.806;2022-12-05T07:14:36;12.70;99.90
36444;DHT22;24692;45.642;13.806;2022-12-05T07:17:02;12.80;99.90
36444;DHT22;24692;45.642;13.806;2022-12-05T07:19:28;12.80;99.90
36444;DHT22;24692;45.642;13.806;2022-12-05T07:21:53;12.90;99.90
36444;DHT22;24692;45.642;13.806;2022-12-05T07:24:19;13.00;99.90
36444;DHT22;24692;45.642;13.806;2022-12-05T07:26:45;13.00;99.90
36444;DHT22;24692;45.642;13.806;2022-12-05T07:29:10;13.10;99.90
36444;DHT22;24692;45.642;13.806;2022-12-05T07:31:36;13.20;99.90
36444;DHT22;24692;45.642;13.806;2022-12-05T07:34:02;13.30;99.90
36444;DHT22;24692;45.642;13.806;2022-12-05T07:36:28;13.30;99.90
36444;DHT22;24692;45.642;13.806;2022-12-05T07:38:55;13.30;99.90
36444;DHT22;24692;45.642;13.806;2022-12-05T07:41:29;13.40;99.90
36444;DHT22;24692;45.642;13.806;2022-12-05T07:43:57;13.40;99.90
36444;DHT22;24692;45.642;13.806;2022-12-05T07:46:23;13.30;99.90
36444;DHT22;24692;45.642;13.806;2022-12-05T07:48:50;13.40;99.90
36444;DHT22;24692;45.642;13.806;2022-12-05T07:51:16;13.40;99.90
36444;DHT22;24692;45.642;13.806;2022-12-05T07:53:42;13.30;99.90
36444;DHT22;24692;45.642;13.806;2022-12-05T07:56:13;13.20;99.90
36444;DHT22;24692;45.642;13.806;2022-12-05T07:58:45;13.20;99.90
36444;DHT22;24692;45.642;13.806;2022-12-05T08:01:16;13.20;99.90
36444;DHT22;24692;45.642;13.806;2022-12-05T08:03:43;13.20;99.90
36444;DHT22;24692;45.642;13.806;2022-12-05T08:06:35;13.30;99.90
36444;DHT22;24692;45.642;13.806;2022-12-05T08:09:00;13.40;99.90
36444;DHT22;24692;45.642;13.806;2022-12-05T08:11:31;13.40;99.90
36444;DHT22;24692;45.642;13.806;2022-12-05T08:14:01;13.50;99.90
36444;DHT22;24692;45.642;13.806;2022-12-05T08:16:28;13.50;99.90
36444;DHT22;24692;45.642;13.806;2022-12-05T08:18:55;13.50;99.90
36444;DHT22;24692;45.642;13.806;2022-12-05T08:21:21;13.50;99.90
36444;DHT22;24692;45.642;13.806;2022-12-05T08:23:49;13.60;99.90
36444;DHT22;24692;45.642;13.806;2022-12-05T08:26:21;13.60;99.90
36444;DHT22;24692;45.642;13.806;2022-12-05T08:29:18;13.70;99.90
36444;DHT22;24692;45.642;13.806;2022-12-05T08:31:48;13.60;99.90
36444;DHT22;24692;45.642;13.806;2022-12-05T08:34:18;13.70;99.90
36444;DHT22;24692;45.642;13.806;2022-12-05T08:36:44;13.80;99.90
36444;DHT22;24692;45.642;13.806;2022-12-05T08:39:13;13.80;99.90
36444;DHT22;24692;45.642;13.806;2022-12-05T08:41:41;13.90;99.90
36444;DHT22;24692;45.642;13.806;2022-12-05T08:44:07;14.40;99.90
36444;DHT22;24692;45.642;13.806;2022-12-05T08:46:36;14.60;99.90
36444;DHT22;24692;45.642;13.806;2022-12-05T08:49:04;14.70;99.90
36444;DHT22;24692;45.642;13.806;2022-12-05T08:51:29;14.70;99.90
36444;DHT22;24692;45.642;13.806;2022-12-05T08:53:55;14.60;99.90
36444;DHT22;24692;45.642;13.806;2022-12-05T08:56:21;14.50;99.90
36444;DHT22;24692;45.642;13.806;2022-12-05T08:58:47;14.40;99.90
36444;DHT22;24692;45.642;13.806;2022-12-05T09:01:15;14.30;99.90
36444;DHT22;24692;45.642;13.806;2022-12-05T09:03:42;14.30;99.90
36444;DHT22;24692;45.642;13.806;2022-12-05T09:06:20;14.20;99.90
36444;DHT22;24692;45.642;13.806;2022-12-05T09:08:48;14.10;99.90
36444;DHT22;24692;45.642;13.806;2022-12-05T09:11:23;14.10;99.90
36444;DHT22;24692;45.642;13.806;2022-12-05T09:13:51;14.00;99.90
36444;DHT22;24692;45.642;13.806;2022-12-05T09:16:23;14.10;99.90
36444;DHT22;24692;45.642;13.806;2022-12-05T09:18:50;14.10;99.90
36444;DHT22;24692;45.642;13.806;2022-12-05T09:21:22;14.10;99.90
36444;DHT22;24692;45.642;13.806;2022-12-05T09:23:48;14.20;99.90
36444;DHT22;24692;45.642;13.806;2022-12-05T09:26:16;14.40;99.90
36444;DHT22;24692;45.642;13.806;2022-12-05T09:28:42;14.40;99.90
36444;DHT22;24692;45.642;13.806;2022-12-05T09:31:17;14.50;99.90
36444;DHT22;24692;45.642;13.806;2022-12-05T09:33:43;14.40;99.90
36444;DHT22;24692;45.642;13.806;2022-12-05T09:36:20;14.30;99.90
36444;DHT22;24692;45.642;13.806;2022-12-05T09:38:48;14.40;99.90
36444;DHT22;24692;45.642;13.806;2022-12-05T09:50:19;14.30;99.90
36444;DHT22;24692;45.642;13.806;2022-12-05T09:58:46;14.20;99.90
36444;DHT22;24692;45.642;13.806;2022-12-05T10:20:49;13.60;99.90
36444;DHT22;24692;45.642;13.806;2022-12-05T10:26:14;13.60;99.90
36444;DHT22;24692;45.642;13.806;2022-12-05T10:28:51;13.60;99.90
36444;DHT22;24692;45.642;13.806;2022-12-05T10:31:29;13.60;99.90
36444;DHT22;24692;45.642;13.806;2022-12-05T10:34:02;13.50;99.90
36444;DHT22;24692;45.642;13.806;2022-12-05T10:36:29;13.60;99.90
36444;DHT22;24692;45.642;13.806;2022-12-05T10:38:55;13.60;99.90
36444;DHT22;24692;45.642;13.806;2022-12-05T10:41:21;13.70;99.90
36444;DHT22;24692;45.642;13.806;2022-12-05T10:43:47;13.80;99.90
36444;DHT22;24692;45.642;13.806;2022-12-05T10:46:15;13.70;99.90
36444;DHT22;24692;45.642;13.806;2022-12-05T10:48:41;13.60;99.90
36444;DHT22;24692;45.642;13.806;2022-12-05T10:51:14;13.50;99.90
36444;DHT22;24692;45.642;13.806;2022-12-05T10:53:49;13.40;99.90
36444;DHT22;24692;45.642;13.806;2022-12-05T10:56:42;13.40;99.90
36444;DHT22;24692;45.642;13.806;2022-12-05T10:59:11;13.40;99.90
36444;DHT22;24692;45.642;13.806;2022-12-05T11:01:37;13.40;99.90
36444;DHT22;24692;45.642;13.806;2022-12-05T11:04:28;13.40;99.90
36444;DHT22;24692;45.642;13.806;2022-12-05T11:07:02;13.40;99.90
36444;DHT22;24692;45.642;13.806;2022-12-05T11:09:31;13.40;99.90
36444;DHT22;24692;45.642;13.806;2022-12-05T11:14:56;13.50;99.90
36444;DHT22;24692;45.642;13.806;2022-12-05T11:17:34;13.60;99.90
36444;DHT22;24692;45.642;13.806;2022-12-05T11:20:43;13.80;99.90
36444;DHT22;24692;45.642;13.806;2022-12-05T11:22:51;13.80;99.90
36444;DHT22;24692;45.642;13.806;2022-12-05T11:27:57;14.00;99.90
36444;DHT22;24692;45.642;13.806;2022-12-05T11:30:25;14.10;99.90
36444;DHT22;24692;45.642;13.806;2022-12-05T11:33:15;14.20;99.90
36444;DHT22;24692;45.642;13.806;2022-12-05T11:35:42;14.20;99.90
36444;DHT22;24692;45.642;13.806;2022-12-05T11:38:10;14.30;99.90
36444;DHT22;24692;45.642;13.806;2022-12-05T11:40:48;14.20;99.90
36444;DHT22;24692;45.642;13.806;2022-12-05T11:47:04;14.20;99.90
36444;DHT22;24692;45.642;13.806;2022-12-05T12:00:14;14.30;99.90
36444;DHT22;24692;45.642;13.806;2022-12-05T12:16:33;15.00;99.90
36444;DHT22;24692;45.642;13.806;2022-12-05T12:19:09;15.20;99.90
36444;DHT22;24692;45.642;13.806;2022-12-05T12:24:43;16.00;99.90
36444;DHT22;24692;45.642;13.806;2022-12-05T12:30:06;16.00;99.90
36444;DHT22;24692;45.642;13.806;2022-12-05T12:35:27;15.70;99.90
36444;DHT22;24692;45.642;13.806;2022-12-05T12:40:54;15.30;99.90
36444;DHT22;24692;45.642;13.806;2022-12-05T12:43:38;15.10;99.90
36444;DHT22;24692;45.642;13.806;2022-12-05T12:46:29;15.00;99.90
36444;DHT22;24692;45.642;13.806;2022-12-05T12:51:51;14.80;99.90
36444;DHT22;24692;45.642;13.806;2022-12-05T12:55:09;14.70;99.90
36444;DHT22;24692;45.642;13.806;2022-12-05T13:00:05;14.60;99.90
36444;DHT22;24692;45.642;13.806;2022-12-05T13:08:15;14.40;99.90
36444;DHT22;24692;45.642;13.806;2022-12-05T13:10:45;14.40;99.90
36444;DHT22;24692;45.642;13.806;2022-12-05T13:13:27;14.40;99.90
36444;DHT22;24692;45.642;13.806;2022-12-05T13:16:00;14.30;99.90
36444;DHT22;24692;45.642;13.806;2022-12-05T13:18:26;14.30;99.90
36444;DHT22;24692;45.642;13.806;2022-12-05T13:20:56;14.40;99.90
36444;DHT22;24692;45.642;13.806;2022-12-05T13:23:30;14.50;99.90
36444;DHT22;24692;45.642;13.806;2022-12-05T13:25:59;14.40;99.90
36444;DHT22;24692;45.642;13.806;2022-12-05T13:28:36;14.30;99.90
36444;DHT22;24692;45.642;13.806;2022-12-05T13:31:07;14.40;99.90
36444;DHT22;24692;45.642;13.806;2022-12-05T13:33:35;14.30;99.90
36444;DHT22;24692;45.642;13.806;2022-12-05T13:36:11;14.40;99.90
36444;DHT22;24692;45.642;13.806;2022-12-05T13:39:17;14.40;99.90
36444;DHT22;24692;45.642;13.806;2022-12-05T13:42:02;14.40;99.90
36444;DHT22;24692;45.642;13.806;2022-12-05T13:44:45;14.20;99.90
36444;DHT22;24692;45.642;13.806;2022-12-05T13:52:29;14.40;99.90
36444;DHT22;24692;45.642;13.806;2022-12-05T14:07:55;14.70;99.90
36444;DHT22;24692;45.642;13.806;2022-12-05T14:10:22;14.60;99.90
36444;DHT22;24692;45.642;13.806;2022-12-05T14:12:49;14.60;99.90
36444;DHT22;24692;45.642;13.806;2022-12-05T14:17:55;14.80;99.90
36444;DHT22;24692;45.642;13.806;2022-12-05T14:34:17;17.90;99.90
36444;DHT22;24692;45.642;13.806;2022-12-05T14:39:34;17.20;99.90
36444;DHT22;24692;45.642;13.806;2022-12-05T14:42:02;16.50;99.90
36444;DHT22;24692;45.642;13.806;2022-12-05T14:44:28;16.00;99.90
36444;DHT22;24692;45.642;13.806;2022-12-05T14:47:02;15.90;99.90
36444;DHT22;24692;45.642;13.806;2022-12-05T14:52:22;15.70;99.90
36444;DHT22;24692;45.642;13.806;2022-12-05T14:54:50;15.40;99.90
36444;DHT22;24692;45.642;13.806;2022-12-05T14:57:18;15.30;99.90
36444;DHT22;24692;45.642;13.806;2022-12-05T14:59:52;15.10;99.90
36444;DHT22;24692;45.642;13.806;2022-12-05T15:02:25;14.90;99.90
36444;DHT22;24692;45.642;13.806;2022-12-05T15:05:03;14.80;99.90
36444;DHT22;24692;45.642;13.806;2022-12-05T15:07:35;14.70;99.90
36444;DHT22;24692;45.642;13.806;2022-12-05T15:12:50;14.50;99.90
36444;DHT22;24692;45.642;13.806;2022-12-05T15:15:41;14.40;99.90
36444;DHT22;24692;45.642;13.806;2022-12-05T15:18:11;14.30;99.90
36444;DHT22;24692;45.642;13.806;2022-12-05T15:23:54;14.20;99.90
36444;DHT22;24692;45.642;13.806;2022-12-05T15:26:37;14.10;99.90
36444;DHT22;24692;45.642;13.806;2022-12-05T15:31:53;14.10;99.90
36444;DHT22;24692;45.642;13.806;2022-12-05T15:34:42;14.10;99.90
36444;DHT22;24692;45.642;13.806;2022-12-05T15:40:00;14.10;99.90
36444;DHT22;24692;45.642;13.806;2022-12-05T15:47:39;14.20;99.90
36444;DHT22;24692;45.642;13.806;2022-12-05T15:50:11;14.10;99.90
36444;DHT22;24692;45.642;13.806;2022-12-05T15:55:26;14.10;99.90
36444;DHT22;24692;45.642;13.806;2022-12-05T15:58:10;14.10;99.90
36444;DHT22;24692;45.642;13.806;2022-12-05T16:00:40;14.10;99.90
36444;DHT22;24692;45.642;13.806;2022-12-05T16:03:13;14.10;99.90
36444;DHT22;24692;45.642;13.806;2022-12-05T16:06:02;14.10;99.90
36444;DHT22;24692;45.642;13.806;2022-12-05T16:08:29;14.10;99.90
36444;DHT22;24692;45.642;13.806;2022-12-05T16:11:11;14.00;99.90
36444;DHT22;24692;45.642;13.806;2022-12-05T16:13:57;14.00;99.90
36444;DHT22;24692;45.642;13.806;2022-12-05T16:16:28;13.90;99.90
36444;DHT22;24692;45.642;13.806;2022-12-05T16:19:02;13.90;99.90
36444;DHT22;24692;45.642;13.806;2022-12-05T16:21:36;14.00;99.90
36444;DHT22;24692;45.642;13.806;2022-12-05T16:26:39;14.00;99.90
36444;DHT22;24692;45.642;13.806;2022-12-05T16:29:07;14.00;99.90
36444;DHT22;24692;45.642;13.806;2022-12-05T16:31:53;14.00;99.90
36444;DHT22;24692;45.642;13.806;2022-12-05T16:34:19;14.10;99.90
36444;DHT22;24692;45.642;13.806;2022-12-05T16:36:46;14.10;99.90
36444;DHT22;24692;45.642;13.806;2022-12-05T16:39:14;14.20;99.90
36444;DHT22;24692;45.642;13.806;2022-12-05T16:41:41;14.20;99.90
36444;DHT22;24692;45.642;13.806;2022-12-05T16:47:01;14.10;99.90
36444;DHT22;24692;45.642;13.806;2022-12-05T16:54:33;13.90;99.90
36444;DHT22;24692;45.642;13.806;2022-12-05T16:57:00;13.80;99.90
36444;DHT22;24692;45.642;13.806;2022-12-05T16:59:34;13.80;99.90
36444;DHT22;24692;45.642;13.806;2022-12-05T17:02:02;13.80;99.90
36444;DHT22;24692;45.642;13.806;2022-12-05T17:04:28;13.80;99.90
36444;DHT22;24692;45.642;13.806;2022-12-05T17:06:54;13.80;99.90
36444;DHT22;24692;45.642;13.806;2022-12-05T17:09:19;13.80;99.90
36444;DHT22;24692;45.642;13.806;2022-12-05T17:11:46;13.80;99.90
36444;DHT22;24692;45.642;13.806;2022-12-05T17:14:15;13.80;99.90
36444;DHT22;24692;45.642;13.806;2022-12-05T17:16:41;13.80;99.90
36444;DHT22;24692;45.642;13.806;2022-12-05T17:19:11;13.80;99.90
36444;DHT22;24692;45.642;13.806;2022-12-05T17:21:38;13.70;99.90
36444;DHT22;24692;45.642;13.806;2022-12-05T17:24:06;13.70;99.90
36444;DHT22;24692;45.642;13.806;2022-12-05T17:26:32;13.80;99.90
36444;DHT22;24692;45.642;13.806;2022-12-05T17:28:58;13.80;99.90
36444;DHT22;24692;45.642;13.806;2022-12-05T17:31:24;13.80;99.90
36444;DHT22;24692;45.642;13.806;2022-12-05T17:33:52;13.80;99.90
36444;DHT22;24692;45.642;13.806;2022-12-05T17:36:18;13.80;99.90
36444;DHT22;24692;45.642;13.806;2022-12-05T17:38:47;13.80;99.90
36444;DHT22;24692;45.642;13.806;2022-12-05T17:41:17;13.80;99.90
36444;DHT22;24692;45.642;13.806;2022-12-05T17:43:44;13.80;99.90
36444;DHT22;24692;45.642;13.806;2022-12-05T17:46:14;13.80;99.90
36444;DHT22;24692;45.642;13.806;2022-12-05T17:48:40;13.80;99.90
36444;DHT22;24692;45.642;13.806;2022-12-05T17:51:08;13.60;99.90
36444;DHT22;24692;45.642;13.806;2022-12-05T17:53:36;13.60;99.90
36444;DHT22;24692;45.642;13.806;2022-12-05T17:56:03;13.60;99.90
36444;DHT22;24692;45.642;13.806;2022-12-05T17:58:29;13.60;99.90
36444;DHT22;24692;45.642;13.806;2022-12-05T18:00:55;13.60;99.90
36444;DHT22;24692;45.642;13.806;2022-12-05T18:03:20;13.60;99.90
36444;DHT22;24692;45.642;13.806;2022-12-05T18:05:46;13.50;99.90
36444;DHT22;24692;45.642;13.806;2022-12-05T18:08:12;13.50;99.90
36444;DHT22;24692;45.642;13.806;2022-12-05T18:10:42;13.40;99.90
36444;DHT22;24692;45.642;13.806;2022-12-05T18:13:08;13.40;99.90
36444;DHT22;24692;45.642;13.806;2022-12-05T18:15:34;13.40;99.90
36444;DHT22;24692;45.642;13.806;2022-12-05T18:17:59;13.30;99.90
36444;DHT22;24692;45.642;13.806;2022-12-05T18:20:28;13.30;99.90
36444;DHT22;24692;45.642;13.806;2022-12-05T18:22:54;13.30;99.90
36444;DHT22;24692;45.642;13.806;2022-12-05T18:25:20;13.30;99.90
36444;DHT22;24692;45.642;13.806;2022-12-05T18:27:46;13.20;99.90
36444;DHT22;24692;45.642;13.806;2022-12-05T18:30:12;13.40;99.90
36444;DHT22;24692;45.642;13.806;2022-12-05T18:32:38;13.40;99.90
36444;DHT22;24692;45.642;13.806;2022-12-05T18:35:04;13.40;99.90
36444;DHT22;24692;45.642;13.806;2022-12-05T18:37:34;13.40;99.90
36444;DHT22;24692;45.642;13.806;2022-12-05T18:40:00;13.50;99.90
36444;DHT22;24692;45.642;13.806;2022-12-05T18:42:26;13.50;99.90
36444;DHT22;24692;45.642;13.806;2022-12-05T18:44:52;13.60;99.90
36444;DHT22;24692;45.642;13.806;2022-12-05T18:47:18;13.50;99.90
36444;DHT22;24692;45.642;13.806;2022-12-05T18:49:44;13.50;99.90
36444;DHT22;24692;45.642;13.806;2022-12-05T18:52:10;13.60;99.90
36444;DHT22;24692;45.642;13.806;2022-12-05T18:54:36;13.60;99.90
36444;DHT22;24692;45.642;13.806;2022-12-05T18:57:01;13.60;99.90
36444;DHT22;24692;45.642;13.806;2022-12-05T18:59:27;13.60;99.90